createdAt,value
2022-11-21T14:30:30.270Z,95803.81
2022-11-21T14:32:58.449Z,95811.44
2022-11-21T14:35:26.559Z,95804.53
2022-11-21T14:37:55.278Z,95803.72
2022-11-21T14:40:25.133Z,95800.84
2022-11-21T14:42:53.192Z,95800.31
2022-11-21T14:45:23.029Z,95798.03
2022-11-21T14:47:54.101Z,95796.81
2022-11-21T14:50:25.187Z,95795.09
2022-11-21T14:52:57.403Z,95794.97
2022-11-21T14:55:30.942Z,95794.84
2022-11-21T14:58:00.771Z,95789.03
2022-11-21T15:00:58.025Z,95787.31
2022-11-21T15:03:23.013Z,95786.38
2022-11-21T15:06:08.482Z,95788.41
2022-11-21T15:09:29.000Z,95783.06
2022-11-21T15:11:31.286Z,95772.53
2022-11-21T15:14:17.845Z,95768.72
2022-11-21T15:16:47.552Z,95750.94
2022-11-21T15:19:22.177Z,95743.41
2022-11-21T15:21:51.292Z,95738.72
2022-11-21T15:24:27.985Z,95736.56
2022-11-21T15:26:56.329Z,95730.13
2022-11-21T15:29:24.576Z,95732.25
2022-11-21T15:32:09.149Z,95726.06
2022-11-21T15:34:40.029Z,95718.06
2022-11-21T15:37:15.832Z,95714.94
2022-11-21T15:39:44.906Z,95716.53
2022-11-21T15:42:30.074Z,95710.91
2022-11-21T15:44:59.712Z,95709.66
2022-11-21T15:47:28.565Z,95707.34
2022-11-21T15:49:58.107Z,95709.16
2022-11-21T15:52:26.241Z,95709.84
2022-11-21T15:54:54.293Z,95692.16
2022-11-21T15:57:22.837Z,95698.69
2022-11-21T15:59:51.081Z,95696.91
2022-11-21T16:02:19.160Z,95689.41
2022-11-21T16:04:47.220Z,95696.28
2022-11-21T16:07:16.727Z,95698.69
2022-11-21T16:09:45.975Z,95691.19
2022-11-21T16:12:14.079Z,95677.75
2022-11-21T16:14:42.168Z,95676.97
2022-11-21T16:17:10.226Z,95671.84
2022-11-21T16:19:38.307Z,95667.00
2022-11-21T16:22:06.392Z,95672.84
2022-11-21T16:24:35.834Z,95671.13
2022-11-21T16:27:03.866Z,95667.28
2022-11-21T16:29:31.963Z,95660.38
2022-11-21T16:31:59.972Z,95655.06
2022-11-21T16:34:28.478Z,95649.72
2022-11-21T16:36:56.601Z,95654.69
2022-11-21T16:39:24.621Z,95653.47
2022-11-21T16:41:54.012Z,95657.59
2022-11-21T16:44:22.071Z,95650.28
2022-11-21T16:46:51.696Z,95654.22
2022-11-21T16:49:20.221Z,95651.66
2022-11-21T16:51:48.245Z,95644.78
2022-11-21T16:54:16.452Z,95642.81
2022-11-21T16:56:44.486Z,95633.75
2022-11-21T16:59:13.865Z,95633.44
2022-11-21T17:01:42.019Z,95632.94
2022-11-21T17:04:15.589Z,95620.31
2022-11-21T17:06:45.502Z,95621.72
2022-11-21T17:09:13.555Z,95615.00
2022-11-21T17:11:41.704Z,95618.25
2022-11-21T17:14:13.774Z,95612.44
2022-11-21T17:16:42.090Z,95612.34
2022-11-21T17:19:12.198Z,95612.06
2022-11-21T17:21:40.308Z,95611.47
2022-11-21T17:24:08.446Z,95594.88
2022-11-21T17:26:37.337Z,95602.69
2022-11-21T17:29:05.581Z,95599.81
2022-11-21T17:31:35.083Z,95590.75
2022-11-21T17:34:03.351Z,95579.72
2022-11-21T17:36:34.497Z,95575.34
2022-11-21T17:39:03.001Z,95558.41
2022-11-21T17:41:31.060Z,95557.41
2022-11-21T17:44:00.990Z,95553.88
2022-11-21T17:46:29.082Z,95548.03
2022-11-21T17:48:59.343Z,95544.41
2022-11-21T17:51:29.464Z,95547.16
2022-11-21T17:53:58.021Z,95550.31
2022-11-21T17:56:28.650Z,95540.84
2022-11-21T17:58:57.248Z,95530.00
2022-11-21T18:01:25.377Z,95532.97
2022-11-21T18:03:57.161Z,95538.38
2022-11-21T18:06:28.310Z,95537.50
2022-11-21T18:08:57.176Z,95534.44
2022-11-21T18:11:29.677Z,95531.78
2022-11-21T18:14:00.412Z,95527.44
2022-11-21T18:16:29.779Z,95522.72
2022-11-21T18:18:58.050Z,95525.75
2022-11-21T18:21:28.860Z,95521.91
2022-11-21T18:23:59.562Z,95513.25
2022-11-21T18:26:29.206Z,95521.09
2022-11-21T18:29:20.523Z,95510.28
2022-11-21T18:31:46.480Z,95513.41
2022-11-21T18:34:14.491Z,95511.06
2022-11-21T18:36:43.876Z,95510.28
2022-11-21T18:39:15.247Z,95498.25
2022-11-21T18:41:44.137Z,95486.59
2022-11-21T18:44:20.091Z,95485.31
2022-11-21T18:46:49.986Z,95475.66
2022-11-21T18:49:18.219Z,95475.66
2022-11-21T18:51:48.447Z,95467.09
2022-11-21T18:54:16.929Z,95463.38
2022-11-21T18:56:44.981Z,95459.81
2022-11-21T18:59:13.022Z,95452.41
2022-11-21T19:01:41.154Z,95458.34
2022-11-21T19:04:09.420Z,95453.03
2022-11-21T19:06:37.565Z,95450.75
2022-11-21T19:09:08.208Z,95447.66
2022-11-21T19:11:36.261Z,95442.88
2022-11-21T19:14:04.585Z,95441.28
2022-11-21T19:16:34.393Z,95431.25
2022-11-21T19:19:33.012Z,95425.94
2022-11-21T19:21:50.989Z,95423.94
2022-11-21T19:24:20.582Z,95427.66
2022-11-21T19:26:50.494Z,95423.44
2022-11-21T19:29:18.989Z,95420.78
2022-11-21T19:31:47.162Z,95415.47
2022-11-21T19:34:15.640Z,95412.22
2022-11-21T19:36:44.231Z,95407.00
2022-11-21T19:39:12.442Z,95406.00
2022-11-21T19:41:41.946Z,95409.34
2022-11-21T19:44:11.445Z,95396.72
2022-11-21T19:46:40.521Z,95392.59
2022-11-21T19:49:09.424Z,95381.13
2022-11-21T19:51:39.147Z,95375.81
2022-11-21T19:54:08.323Z,95374.41
2022-11-21T19:56:36.990Z,95368.03
2022-11-21T19:59:06.584Z,95357.31
2022-11-21T20:01:35.852Z,95361.31
2022-11-21T20:04:05.254Z,95352.75
2022-11-21T20:06:34.759Z,95347.84
2022-11-21T20:09:04.360Z,95348.03
2022-11-21T20:11:32.844Z,95342.13
2022-11-21T20:14:01.002Z,95338.03
2022-11-21T20:16:31.925Z,95331.94
2022-11-21T20:19:01.022Z,95324.06
2022-11-21T20:21:29.803Z,95323.25
2022-11-21T20:23:58.301Z,95318.22
2022-11-21T20:26:27.220Z,95320.13
2022-11-21T20:28:55.626Z,95314.72
2022-11-21T20:31:26.960Z,95305.41
2022-11-21T20:34:00.385Z,95302.25
2022-11-21T20:36:32.846Z,95291.22
2022-11-21T20:39:02.922Z,95297.31
2022-11-21T20:41:32.637Z,95292.50
2022-11-21T20:46:53.897Z,95270.38
2022-11-21T20:49:23.370Z,95253.66
2022-11-21T20:54:40.146Z,95236.94
2022-11-21T20:57:14.288Z,95232.53
2022-11-21T20:59:43.076Z,95242.34
2022-11-21T21:02:13.911Z,95254.66
2022-11-21T21:04:43.680Z,95261.94
2022-11-21T21:07:11.818Z,95269.91
2022-11-21T21:09:40.246Z,95278.34
2022-11-21T21:12:08.656Z,95287.88
2022-11-21T21:14:36.654Z,95276.31
2022-11-21T21:17:04.744Z,95252.41
2022-11-21T21:19:33.028Z,95253.66
2022-11-21T21:22:02.582Z,95259.19
2022-11-21T21:24:30.662Z,95255.63
2022-11-21T21:26:58.991Z,95257.00
2022-11-21T21:29:27.317Z,95257.59
2022-11-21T21:31:55.572Z,95251.50
2022-11-21T21:34:23.968Z,95245.78
2022-11-21T21:36:52.296Z,95247.25
2022-11-21T21:39:21.646Z,95248.94
2022-11-21T21:41:49.677Z,95241.94
2022-11-21T21:44:17.663Z,95249.34
2022-11-21T21:46:46.091Z,95242.84
2022-11-21T21:49:14.176Z,95234.56
2022-11-21T21:51:42.349Z,95230.66
2022-11-21T21:54:17.454Z,95225.91
2022-11-21T21:56:47.128Z,95220.44
2022-11-21T21:59:15.474Z,95230.84
2022-11-21T22:01:43.841Z,95220.53
2022-11-21T22:04:13.270Z,95230.66
2022-11-21T22:06:41.542Z,95230.25
2022-11-21T22:09:09.885Z,95238.13
2022-11-21T22:11:39.259Z,95242.25
2022-11-21T22:14:11.940Z,95231.63
2022-11-21T22:16:40.120Z,95230.25
2022-11-21T22:19:08.328Z,95240.19
2022-11-21T22:21:37.401Z,95239.59
2022-11-21T22:24:24.976Z,95234.19
2022-11-21T22:26:54.258Z,95229.19
2022-11-21T22:29:23.867Z,95236.16
2022-11-21T22:31:51.968Z,95228.38
2022-11-21T22:34:20.077Z,95228.09
2022-11-21T22:36:48.177Z,95238.69
2022-11-21T22:39:17.338Z,95231.91
2022-11-21T22:41:45.521Z,95222.97
2022-11-21T22:44:13.629Z,95228.88
2022-11-21T22:46:43.016Z,95214.91
2022-11-21T22:49:11.081Z,95220.22
2022-11-21T22:51:39.145Z,95217.06
2022-11-21T22:54:07.294Z,95220.09
2022-11-21T22:56:35.400Z,95220.59
2022-11-21T22:59:03.496Z,95214.69
2022-11-21T23:01:33.991Z,95213.59
2022-11-21T23:04:03.536Z,95221.19
2022-11-21T23:06:31.544Z,95219.59
2022-11-21T23:08:59.732Z,95209.97
2022-11-21T23:11:29.018Z,95207.22
2022-11-21T23:13:57.759Z,95205.63
2022-11-21T23:16:26.365Z,95201.28
2022-11-21T23:18:55.041Z,95203.88
2022-11-21T23:21:24.637Z,95202.19
2022-11-21T23:23:52.684Z,95206.41
2022-11-21T23:26:20.733Z,95196.59
2022-11-21T23:28:48.808Z,95204.50
2022-11-21T23:31:17.156Z,95202.91
2022-11-21T23:33:45.442Z,95200.53
2022-11-21T23:36:13.542Z,95190.13
2022-11-21T23:38:43.023Z,95197.19
2022-11-21T23:41:11.132Z,95216.88
2022-11-21T23:43:39.175Z,95231.06
2022-11-21T23:46:07.274Z,95223.09
2022-11-21T23:48:35.342Z,95220.44
2022-11-21T23:51:03.342Z,95233.22
2022-11-21T23:53:31.445Z,95219.94
2022-11-21T23:56:00.825Z,95217.47
2022-11-21T23:58:28.881Z,95215.28
